Time;durP1;ratioP1;P1;durP2;ratioP2;P2;SDS_P1;SDS_P2;PMS_P1;PMS_P2;Temp;Humidity;BMP_temperature;BMP_pressure;BME280_temperature;BME280_humidity;BME280_pressure;Samples;Min_cycle;Max_cycle;Signal;HPM_P1;HPM_P2
2021/06/13 00:00:15;;;;;;;11.55;6.38;;;;;;;16.32;67.16;94966.53;4939492;29;20046;-84
2021/06/13 00:02:42;;;;;;;8.60;6.45;;;;;;;16.34;66.98;94969.69;4932344;29;20101;-83
2021/06/13 00:05:08;;;;;;;8.57;6.05;;;;;;;16.30;66.61;94968.66;4955517;29;20031;-84
2021/06/13 00:07:34;;;;;;;5.88;5.20;;;;;;;16.23;66.95;94970.72;4938939;29;20023;-83
2021/06/13 00:10:00;;;;;;;12.15;5.82;;;;;;;16.20;67.05;94970.22;4940224;29;20050;-84
2021/06/13 00:12:25;;;;;;;6.28;5.68;;;;;;;16.23;66.97;94968.09;4957171;29;20035;-84
2021/06/13 00:14:51;;;;;;;5.63;5.13;;;;;;;16.20;67.01;94962.34;4938822;29;20098;-84
2021/06/13 00:17:17;;;;;;;9.90;4.82;;;;;;;16.20;67.21;94956.31;4923753;29;20047;-84
2021/06/13 00:19:44;;;;;;;7.80;4.97;;;;;;;16.14;67.28;94960.00;4939621;29;20070;-83
2021/06/13 00:22:09;;;;;;;13.32;5.00;;;;;;;16.10;67.06;94959.72;4956202;29;20043;-84
2021/06/13 00:24:35;;;;;;;6.78;4.88;;;;;;;16.08;66.96;94961.81;4923293;29;20047;-83
2021/06/13 00:27:07;;;;;;;10.25;5.13;;;;;;;16.03;66.95;94958.41;4939177;29;20085;-83
2021/06/13 00:29:32;;;;;;;15.00;5.20;;;;;;;16.04;67.32;94960.75;4939115;29;20031;-83
2021/06/13 00:31:58;;;;;;;9.15;5.45;;;;;;;15.98;67.17;94953.94;4956054;28;20039;-82
2021/06/13 00:34:24;;;;;;;13.18;5.70;;;;;;;15.97;67.59;94952.38;4955264;29;20027;-82
2021/06/13 00:36:51;;;;;;;12.80;5.47;;;;;;;15.94;67.39;94955.50;4939283;29;20043;-83
2021/06/13 00:39:16;;;;;;;10.95;5.68;;;;;;;15.90;67.38;94949.22;5018560;23;20054;-83
2021/06/13 00:41:42;;;;;;;10.50;6.05;;;;;;;15.84;67.18;94945.03;4956163;28;20043;-83
2021/06/13 00:44:07;;;;;;;7.07;5.05;;;;;;;15.83;67.21;94943.44;4954223;29;20040;-84
2021/06/13 00:46:33;;;;;;;12.05;5.15;;;;;;;15.82;67.43;94937.41;4956269;28;20038;-84
2021/06/13 00:48:59;;;;;;;8.60;5.63;;;;;;;15.77;67.03;94933.97;4954721;29;20040;-84
2021/06/13 00:51:24;;;;;;;9.85;5.43;;;;;;;15.78;67.41;94928.50;4944904;29;20392;-84
2021/06/13 00:53:50;;;;;;;8.00;5.20;;;;;;;15.74;67.64;94935.31;4963405;28;20050;-84
2021/06/13 00:56:15;;;;;;;6.72;5.38;;;;;;;15.71;67.38;94940.28;4954537;29;20035;-84
2021/06/13 00:58:42;;;;;;;11.18;5.10;;;;;;;15.70;67.59;94936.88;4937682;29;20024;-84
2021/06/13 01:01:07;;;;;;;10.63;5.00;;;;;;;15.67;66.98;94934.00;4938807;29;20092;-84
2021/06/13 01:03:32;;;;;;;9.05;5.50;;;;;;;15.66;67.93;94937.66;4961646;28;20066;-83
2021/06/13 01:05:58;;;;;;;7.88;5.20;;;;;;;15.66;67.22;94935.03;4953609;29;20038;-83
2021/06/13 01:08:42;;;;;;;7.55;5.10;;;;;;;15.58;67.75;94942.31;4962003;28;20046;-84
2021/06/13 01:11:37;;;;;;;26.55;5.63;;;;;;;15.53;68.03;94929.22;4954479;29;20557;-84
2021/06/13 01:14:16;;;;;;;14.50;5.32;;;;;;;15.55;68.30;94932.34;4953852;28;20400;-84
2021/06/13 01:16:44;;;;;;;5.38;4.85;;;;;;;15.58;67.77;94934.47;4956059;29;20043;-84
2021/06/13 01:19:20;;;;;;;5.90;5.38;;;;;;;15.56;68.31;94928.69;4964637;23;20123;-84
2021/06/13 01:22:14;;;;;;;8.38;5.97;;;;;;;15.45;68.78;94926.31;4986300;28;20034;-83
2021/06/13 01:25:01;;;;;;;8.23;5.70;;;;;;;15.38;69.39;94926.56;4971279;28;20047;-83
2021/06/13 01:28:01;;;;;;;11.57;5.97;;;;;;;15.28;69.28;94929.94;4992584;28;20035;-83
2021/06/13 01:30:28;;;;;;;20.17;6.45;;;;;;;15.19;69.66;94934.09;4992329;28;20515;-83
2021/06/13 01:32:54;;;;;;;10.63;6.38;;;;;;;15.12;69.46;94927.53;4993072;28;20053;-82
2021/06/13 01:35:22;;;;;;;7.70;5.90;;;;;;;15.10;69.56;94940.88;4980401;28;20038;-84
2021/06/13 01:37:53;;;;;;;9.05;5.95;;;;;;;15.00;69.78;94944.25;4979640;28;20018;-83
2021/06/13 01:40:19;;;;;;;10.15;6.03;;;;;;;14.97;70.44;94930.91;4997758;28;20031;-82
2021/06/13 01:42:47;;;;;;;10.82;5.95;;;;;;;15.00;69.92;94931.16;4973230;28;20606;-83
2021/06/13 01:45:15;;;;;;;7.60;5.63;;;;;;;15.01;70.71;94927.50;4955772;28;20433;-84
2021/06/13 01:47:40;;;;;;;6.18;5.28;;;;;;;15.07;70.37;94915.19;4967125;28;20035;-84
2021/06/13 01:50:07;;;;;;;7.88;5.10;;;;;;;15.13;70.10;94918.63;4942802;28;20505;-84
2021/06/13 01:52:33;;;;;;;6.88;5.25;;;;;;;15.10;69.64;94916.50;4967403;23;20047;-83
2021/06/13 01:54:59;;;;;;;6.40;5.80;;;;;;;15.09;69.76;94912.31;4963196;28;20062;-83
2021/06/13 01:57:25;;;;;;;8.10;5.60;;;;;;;15.11;69.67;94912.84;4933115;23;20051;-83
2021/06/13 01:59:50;;;;;;;16.17;6.13;;;;;;;15.05;69.83;94906.03;4931968;29;20095;-83
2021/06/13 02:02:16;;;;;;;6.22;5.75;;;;;;;15.07;69.62;94909.97;4927280;29;20502;-85
2021/06/13 02:04:47;;;;;;;14.25;5.68;;;;;;;15.12;69.98;94903.94;4909773;29;20033;-84
2021/06/13 02:07:13;;;;;;;10.35;5.65;;;;;;;15.14;69.90;94904.50;4910449;29;20658;-84
2021/06/13 02:09:39;;;;;;;17.65;7.15;;;;;;;15.17;69.68;94904.75;4910945;29;20070;-84
2021/06/13 02:12:05;;;;;;;14.63;7.57;;;;;;;15.19;68.83;94907.13;4925828;29;20035;-84
2021/06/13 02:14:31;;;;;;;24.42;7.20;;;;;;;15.19;69.38;94902.69;4912499;29;20106;-84
2021/06/13 02:16:57;;;;;;;20.67;6.95;;;;;;;15.17;69.30;94899.53;4926165;29;20044;-83
2021/06/13 02:19:23;;;;;;;21.75;8.00;;;;;;;15.15;68.84;94895.59;4927157;29;20043;-84
2021/06/13 02:21:54;;;;;;;14.85;7.03;;;;;;;15.15;69.15;94899.00;4924874;29;20036;-83
2021/06/13 02:24:20;;;;;;;14.02;7.03;;;;;;;15.07;69.37;94893.47;4910685;29;20110;-83
2021/06/13 02:26:45;;;;;;;7.43;6.70;;;;;;;15.05;69.09;94900.78;4911183;29;20059;-84
2021/06/13 02:29:11;;;;;;;6.97;6.28;;;;;;;15.05;69.67;94898.97;4909443;29;20027;-83
2021/06/13 02:31:39;;;;;;;10.90;7.65;;;;;;;15.05;69.17;94900.78;4910335;29;20086;-84
2021/06/13 02:34:05;;;;;;;7.60;6.30;;;;;;;14.97;69.75;94904.72;4924008;29;20028;-84
2021/06/13 02:36:30;;;;;;;9.50;6.38;;;;;;;14.95;69.58;94896.28;4925882;29;20054;-84
2021/06/13 02:38:56;;;;;;;10.40;6.32;;;;;;;14.99;69.19;94898.16;4927501;29;20047;-84
2021/06/13 02:41:22;;;;;;;7.18;6.30;;;;;;;15.04;69.71;94904.47;4927254;29;20027;-83
2021/06/13 02:43:47;;;;;;;7.00;6.35;;;;;;;15.01;69.58;94911.00;4904086;29;20047;-83
2021/06/13 02:46:13;;;;;;;7.10;6.47;;;;;;;14.81;70.71;94906.47;4943038;29;20040;-83
2021/06/13 02:48:44;;;;;;;7.10;6.40;;;;;;;14.64;71.43;94905.84;4918975;29;20044;-83
2021/06/13 02:51:11;;;;;;;7.68;6.30;;;;;;;14.73;70.99;94901.72;5552334;23;20061;-84
2021/06/13 02:53:44;;;;;;;6.43;5.82;;;;;;;14.83;70.77;94908.84;4990314;23;20046;-82
2021/06/13 02:56:39;;;;;;;6.78;6.15;;;;;;;14.90;70.14;94899.69;4984382;28;20036;-82
2021/06/13 02:59:43;;;;;;;16.17;6.32;;;;;;;14.93;69.89;94906.25;4999276;28;20056;-83
2021/06/13 03:02:11;;;;;;;30.23;7.65;;;;;;;14.96;69.46;94909.13;4972770;28;20061;-83
2021/06/13 03:04:37;;;;;;;25.55;8.40;;;;;;;14.99;68.82;94908.63;4972477;28;20113;-82
2021/06/13 03:07:02;;;;;;;15.77;7.30;;;;;;;15.06;68.61;94910.22;4964701;28;20035;-82
2021/06/13 03:09:29;;;;;;;10.45;6.75;;;;;;;15.10;68.99;94908.66;5100824;23;20014;-83
2021/06/13 03:11:55;;;;;;;7.13;6.43;;;;;;;15.15;68.72;94906.84;4991354;28;20042;-82
2021/06/13 03:14:21;;;;;;;14.77;6.15;;;;;;;15.23;69.00;94908.19;4948548;23;20049;-82
2021/06/13 03:16:46;;;;;;;18.85;13.48;;;;;;;15.33;68.64;94908.22;4973707;28;20541;-82
2021/06/13 03:19:12;;;;;;;15.23;7.25;;;;;;;15.38;68.04;94895.13;4949350;28;20035;-84
2021/06/13 03:21:40;;;;;;;14.27;7.53;;;;;;;15.42;68.04;94896.16;4946280;28;20046;-84
2021/06/13 03:24:06;;;;;;;22.83;8.57;;;;;;;15.55;66.88;94900.91;4931379;28;20039;-83
2021/06/13 03:26:31;;;;;;;10.50;7.28;;;;;;;15.63;66.66;94906.72;4948817;28;20046;-82
2021/06/13 03:28:59;;;;;;;18.83;8.00;;;;;;;15.71;66.29;94899.13;4930551;28;20027;-83
2021/06/13 03:31:25;;;;;;;20.00;8.52;;;;;;;15.85;65.52;94909.88;5045620;23;20042;-83
2021/06/13 03:33:53;;;;;;;12.70;6.43;;;;;;;15.92;65.65;94905.16;4944989;29;20040;-82
2021/06/13 03:36:19;;;;;;;16.17;7.00;;;;;;;16.01;65.63;94908.06;4989316;23;20035;-83
2021/06/13 03:38:45;;;;;;;11.30;8.02;;;;;;;16.11;65.26;94913.31;4973356;28;20141;-83
2021/06/13 03:41:13;;;;;;;22.42;8.73;;;;;;;16.16;64.65;94919.31;4954351;28;20050;-82
2021/06/13 03:43:39;;;;;;;11.05;7.90;;;;;;;16.27;64.39;94917.50;4935006;28;20035;-83
2021/06/13 03:46:04;;;;;;;24.73;10.23;;;;;;;16.30;64.40;94910.91;4955453;28;20047;-83
2021/06/13 03:48:29;;;;;;;14.20;9.02;;;;;;;16.34;64.51;94911.97;4938609;28;20043;-83
2021/06/13 03:50:55;;;;;;;17.60;9.65;;;;;;;16.46;64.44;94899.34;4968223;28;20053;-82
2021/06/13 03:53:21;;;;;;;10.93;7.22;;;;;;;16.53;64.07;94905.09;4982188;23;20047;-82
2021/06/13 03:55:47;;;;;;;11.98;7.40;;;;;;;16.71;63.49;94901.91;5056677;23;20513;-82
2021/06/13 03:58:12;;;;;;;15.70;7.97;;;;;;;16.91;62.92;94901.06;4981109;28;20043;-82
2021/06/13 04:00:42;;;;;;;17.15;7.90;;;;;;;17.12;62.66;94901.00;4949044;23;20422;-82
2021/06/13 04:03:07;;;;;;;13.32;8.05;;;;;;;18.05;60.62;94892.25;5007888;28;20165;-83
2021/06/13 04:05:33;;;;;;;12.55;6.65;;;;;;;19.99;54.37;94896.78;4976702;28;20042;-83
2021/06/13 04:07:58;;;;;;;26.38;9.05;;;;;;;21.78;49.27;94887.81;5004031;28;20117;-84
2021/06/13 04:10:24;;;;;;;17.67;8.20;;;;;;;22.79;46.72;94888.25;5011311;28;20505;-83
2021/06/13 04:12:50;;;;;;;17.85;8.07;;;;;;;24.39;43.35;94887.47;4995484;28;20027;-84
2021/06/13 04:15:16;;;;;;;20.95;6.80;;;;;;;25.91;39.21;94873.22;5017653;28;20137;-83
2021/06/13 04:17:42;;;;;;;14.75;5.47;;;;;;;27.25;35.77;94873.47;5013883;28;20061;-80
2021/06/13 04:20:08;;;;;;;9.57;5.40;;;;;;;28.06;34.32;94868.94;4987492;28;20038;-81
2021/06/13 04:22:35;;;;;;;13.70;5.70;;;;;;;27.29;35.67;94871.69;4999663;28;20492;-82
2021/06/13 04:25:09;;;;;;;12.07;5.15;;;;;;;26.22;37.32;94864.78;5011569;28;20049;-82
2021/06/13 04:27:34;;;;;;;13.65;5.05;;;;;;;25.35;39.13;94862.81;5011730;28;20065;-81
2021/06/13 04:30:00;;;;;;;6.00;4.40;;;;;;;26.35;38.05;94861.03;5011064;28;20494;-84
2021/06/13 04:32:29;;;;;;;11.73;4.80;;;;;;;28.27;33.52;94861.50;4985407;28;20113;-81
2021/06/13 04:34:55;;;;;;;13.95;4.25;;;;;;;29.73;30.48;94862.25;5031326;23;20042;-81
2021/06/13 04:37:20;;;;;;;7.22;4.25;;;;;;;31.13;28.69;94868.19;4976644;28;20136;-82
2021/06/13 04:39:46;;;;;;;11.57;3.97;;;;;;;32.56;26.31;94858.09;4953023;28;20035;-81
2021/06/13 04:42:11;;;;;;;8.80;4.13;;;;;;;33.68;24.96;94872.00;4978788;28;20030;-81
2021/06/13 04:44:37;;;;;;;7.28;4.00;;;;;;;34.79;23.56;94871.19;4961457;28;20038;-81
2021/06/13 04:47:04;;;;;;;8.60;3.88;;;;;;;35.77;22.52;94866.06;4979113;28;20035;-82
2021/06/13 04:49:29;;;;;;;12.75;4.15;;;;;;;36.50;21.48;94861.91;4978700;28;20491;-82
2021/06/13 04:51:57;;;;;;;4.53;3.38;;;;;;;37.35;19.73;94863.97;4963175;28;20034;-82
2021/06/13 04:54:45;;;;;;;8.77;3.83;;;;;;;38.11;19.45;94862.75;4980208;28;20039;-82
2021/06/13 04:57:11;;;;;;;5.90;3.50;;;;;;;38.87;18.53;94865.19;4981329;28;20058;-82
2021/06/13 04:59:36;;;;;;;6.50;3.15;;;;;;;39.25;18.66;94866.53;4999094;23;20075;-82
2021/06/13 05:02:02;;;;;;;6.38;3.28;;;;;;;39.73;17.80;94881.63;4946681;29;20040;-83
2021/06/13 05:04:28;;;;;;;5.38;3.40;;;;;;;38.66;18.10;94888.81;4958173;29;20043;-83
2021/06/13 05:06:53;;;;;;;4.03;3.63;;;;;;;36.55;20.29;94878.50;4957225;29;20050;-82
2021/06/13 05:09:19;;;;;;;9.05;3.75;;;;;;;34.79;22.45;94867.72;4961470;29;20126;-82
2021/06/13 05:11:44;;;;;;;6.90;4.22;;;;;;;33.40;24.29;94880.72;4945790;29;20136;-82
2021/06/13 05:14:10;;;;;;;6.60;4.30;;;;;;;32.22;25.72;94874.28;4943511;29;20066;-83
2021/06/13 05:16:38;;;;;;;9.30;3.88;;;;;;;31.35;26.91;94864.72;4944488;29;20035;-83
2021/06/13 05:19:03;;;;;;;5.85;4.43;;;;;;;30.54;28.35;94874.88;4969706;23;20035;-83
2021/06/13 05:21:30;;;;;;;11.20;5.05;;;;;;;30.06;29.24;94871.72;4967301;23;20055;-83
2021/06/13 05:23:56;;;;;;;10.48;4.60;;;;;;;31.14;28.14;94875.91;4978927;28;20310;-83
2021/06/13 05:26:27;;;;;;;8.38;4.80;;;;;;;32.08;26.74;94866.03;4977932;28;20035;-83
2021/06/13 05:28:53;;;;;;;9.55;5.25;;;;;;;31.78;26.86;94865.31;4981688;28;20546;-83
2021/06/13 05:31:18;;;;;;;9.93;4.78;;;;;;;30.97;28.31;94871.81;4968257;28;20050;-82
2021/06/13 05:33:47;;;;;;;9.13;5.25;;;;;;;30.17;29.07;94862.75;4986783;28;20053;-83
2021/06/13 05:36:12;;;;;;;6.55;5.25;;;;;;;29.68;29.77;94862.53;4987348;28;20039;-83
2021/06/13 05:38:40;;;;;;;10.60;5.25;;;;;;;29.53;30.17;94866.03;4987710;28;20062;-84
2021/06/13 05:41:06;;;;;;;7.68;5.20;;;;;;;29.17;31.10;94853.75;4986209;28;20035;-84
2021/06/13 05:43:31;;;;;;;14.88;5.97;;;;;;;28.96;31.24;94859.38;4984495;28;20057;-84
2021/06/13 05:45:58;;;;;;;16.48;5.97;;;;;;;29.20;31.43;94869.13;4962833;28;20410;-83
2021/06/13 05:48:24;;;;;;;14.32;5.60;;;;;;;28.68;32.57;94862.94;4966810;28;20105;-83
2021/06/13 05:50:50;;;;;;;14.95;5.65;;;;;;;28.34;32.92;94855.56;4969991;28;20034;-84
2021/06/13 05:53:15;;;;;;;20.65;5.53;;;;;;;28.30;32.86;94868.06;4990630;23;20053;-83
2021/06/13 05:55:42;;;;;;;7.03;5.65;;;;;;;27.92;33.71;94857.84;5012741;28;20042;-85
2021/06/13 05:58:07;;;;;;;9.82;5.60;;;;;;;27.75;33.74;94866.94;4973069;28;20537;-84
2021/06/13 06:00:34;;;;;;;8.43;5.88;;;;;;;27.39;34.70;94860.53;4991829;28;20047;-83
2021/06/13 06:02:59;;;;;;;11.57;6.47;;;;;;;26.81;35.41;94862.56;4986637;28;20113;-83
2021/06/13 06:05:25;;;;;;;9.90;5.80;;;;;;;26.65;35.71;94852.88;4996545;28;20166;-83
2021/06/13 06:07:51;;;;;;;11.43;6.35;;;;;;;27.07;35.36;94858.81;4971083;28;20045;-84
2021/06/13 06:10:16;;;;;;;16.55;6.28;;;;;;;27.57;35.17;94865.63;4970306;28;20045;-85
2021/06/13 06:12:45;;;;;;;9.82;5.72;;;;;;;28.41;34.07;94866.44;5004676;28;20030;-84
2021/06/13 06:15:15;;;;;;;9.07;6.00;;;;;;;29.77;31.05;94867.66;5007040;28;20062;-85
2021/06/13 06:17:42;;;;;;;7.57;5.50;;;;;;;31.62;28.06;94860.84;4981790;23;20018;-84
2021/06/13 06:20:08;;;;;;;14.50;6.10;;;;;;;33.03;26.08;94861.94;4992072;28;20121;-84
2021/06/13 06:22:33;;;;;;;10.85;5.32;;;;;;;33.50;25.91;94865.75;5051111;23;20041;-85
2021/06/13 06:24:59;;;;;;;12.80;5.00;;;;;;;33.60;25.46;94862.34;5011285;28;20031;-83
2021/06/13 06:27:24;;;;;;;7.68;5.15;;;;;;;33.51;25.84;94862.66;4984117;28;20049;-82
2021/06/13 06:29:50;;;;;;;11.07;5.05;;;;;;;33.17;25.85;94853.19;5002711;28;20049;-82
2021/06/13 06:32:16;;;;;;;6.93;4.63;;;;;;;32.86;26.57;94849.91;4990098;28;20041;-82
2021/06/13 06:34:41;;;;;;;9.57;4.85;;;;;;;32.65;27.21;94850.47;4964079;28;20034;-82
2021/06/13 06:37:06;;;;;;;12.95;5.38;;;;;;;32.80;26.92;94851.38;5004532;28;20061;-82
2021/06/13 06:39:32;;;;;;;15.43;5.20;;;;;;;33.50;25.85;94857.66;5000477;28;20022;-85
2021/06/13 06:41:57;;;;;;;14.07;5.05;;;;;;;34.76;24.93;94844.19;4981016;28;20027;-84
2021/06/13 06:44:23;;;;;;;9.30;4.80;;;;;;;35.87;23.08;94844.81;4986049;28;20388;-84
2021/06/13 06:46:49;;;;;;;10.20;4.78;;;;;;;37.12;21.87;94833.97;4981396;28;20486;-84
2021/06/13 06:49:14;;;;;;;8.25;4.45;;;;;;;37.82;21.19;94829.00;4999511;28;20123;-82
2021/06/13 06:51:40;;;;;;;8.50;4.22;;;;;;;38.90;20.25;94821.66;4989093;28;20094;-81
2021/06/13 06:54:05;;;;;;;17.27;4.32;;;;;;;39.47;19.26;94825.34;4998016;28;20038;-81
2021/06/13 06:56:31;;;;;;;10.70;3.65;;;;;;;39.35;19.91;94825.94;5007584;28;20045;-82
2021/06/13 06:58:56;;;;;;;16.23;4.68;;;;;;;40.03;19.57;94823.50;4997276;28;20057;-83
2021/06/13 07:01:22;;;;;;;7.10;3.28;;;;;;;39.77;19.30;94822.44;5039212;23;20046;-83
2021/06/13 07:04:12;;;;;;;10.82;2.60;;;;;;;38.69;19.48;94817.31;5065517;23;20053;-83
2021/06/13 07:06:38;;;;;;;6.65;3.10;;;;;;;37.90;20.28;94811.44;4998563;28;21175;-83
2021/06/13 07:09:04;;;;;;;7.82;3.05;;;;;;;37.32;22.04;94821.38;5022219;23;20037;-83
2021/06/13 07:11:29;;;;;;;9.52;2.40;;;;;;;37.06;21.17;94811.16;4998232;28;20041;-82
2021/06/13 07:13:59;;;;;;;3.92;2.35;;;;;;;36.66;20.52;94803.34;4999626;28;20022;-82
2021/06/13 07:16:28;;;;;;;4.38;2.35;;;;;;;36.43;21.09;94800.41;4957495;28;20051;-84
2021/06/13 07:18:53;;;;;;;4.72;2.30;;;;;;;35.36;21.50;94805.56;4962486;28;20050;-84
2021/06/13 07:21:19;;;;;;;2.60;2.40;;;;;;;34.47;22.87;94806.34;4982963;28;20031;-83
2021/06/13 07:23:44;;;;;;;8.30;2.72;;;;;;;33.57;24.57;94809.16;4984580;28;20106;-84
2021/06/13 07:29:06;;;;;;;4.72;3.45;;;;;;;31.45;27.59;94799.59;5517589;23;20053;-85
2021/06/13 07:31:48;;;;;;;7.13;3.40;;;;;;;31.02;28.86;94806.25;5008073;28;20521;-83
2021/06/13 07:34:16;;;;;;;7.25;3.47;;;;;;;30.46;29.89;94794.28;5009244;28;20038;-83
2021/06/13 07:36:42;;;;;;;5.55;3.40;;;;;;;29.85;30.99;94797.78;4997534;28;20042;-83
2021/06/13 07:39:09;;;;;;;3.25;2.92;;;;;;;29.26;32.07;94803.44;4988691;28;20022;-83
2021/06/13 07:41:34;;;;;;;4.25;3.53;;;;;;;28.81;33.26;94809.31;4994294;28;20027;-84
2021/06/13 07:44:00;;;;;;;6.88;3.70;;;;;;;28.72;32.74;94806.03;5001920;28;20049;-83
2021/06/13 07:46:25;;;;;;;10.00;4.28;;;;;;;28.43;33.20;94805.34;4978483;28;20052;-84
2021/06/13 07:48:51;;;;;;;8.55;3.63;;;;;;;28.42;33.76;94809.16;5009776;28;20053;-84
2021/06/13 07:51:17;;;;;;;7.10;3.88;;;;;;;28.32;34.35;94805.09;5011278;28;20046;-83
2021/06/13 07:53:45;;;;;;;5.35;4.07;;;;;;;28.22;33.88;94799.44;5008502;28;20390;-84
2021/06/13 07:56:11;;;;;;;13.68;4.00;;;;;;;27.96;34.51;94803.38;5010766;28;20049;-83
2021/06/13 07:58:39;;;;;;;5.30;4.10;;;;;;;27.80;34.82;94795.31;5000519;28;20033;-84
2021/06/13 08:01:08;;;;;;;5.50;4.40;;;;;;;27.61;35.25;94797.03;4979157;28;20046;-85
2021/06/13 08:03:33;;;;;;;12.23;5.80;;;;;;;27.56;36.66;94799.97;4962709;28;20038;-84
2021/06/13 08:05:59;;;;;;;19.85;4.78;;;;;;;28.03;35.64;94805.47;4961193;28;20046;-84
2021/06/13 08:08:25;;;;;;;5.18;4.22;;;;;;;28.40;34.67;94798.78;4977606;28;20034;-84
2021/06/13 08:10:50;;;;;;;4.13;3.70;;;;;;;28.64;33.91;94807.78;4982504;28;20034;-84
2021/06/13 08:13:16;;;;;;;4.35;3.67;;;;;;;28.81;33.72;94815.44;4966401;28;20425;-83
2021/06/13 08:15:42;;;;;;;5.20;4.70;;;;;;;28.88;33.63;94809.50;4998175;28;20049;-84
2021/06/13 08:18:07;;;;;;;5.97;4.57;;;;;;;28.73;33.83;94808.34;5010598;28;20042;-84
2021/06/13 08:20:34;;;;;;;9.23;3.95;;;;;;;28.30;33.81;94811.88;5011440;28;20489;-84
2021/06/13 08:23:00;;;;;;;4.90;4.40;;;;;;;27.84;34.93;94800.78;4974760;28;20042;-83
2021/06/13 08:25:25;;;;;;;7.30;4.70;;;;;;;27.14;36.18;94805.63;4999472;28;20064;-84
2021/06/13 08:28:40;;;;;;;5.55;5.03;;;;;;;26.63;38.06;94813.19;5010634;28;20046;-84
2021/06/13 08:31:06;;;;;;;12.10;5.82;;;;;;;26.09;38.90;94805.34;5019409;23;20513;-84
2021/06/13 08:33:32;;;;;;;7.85;5.28;;;;;;;25.49;40.22;94814.63;5017506;28;20051;-84
2021/06/13 08:35:57;;;;;;;8.35;5.78;;;;;;;25.19;40.94;94805.16;5001125;28;20062;-83
2021/06/13 08:38:24;;;;;;;8.80;6.13;;;;;;;24.80;41.51;94815.06;4999015;28;20046;-84
2021/06/13 08:40:50;;;;;;;13.48;5.85;;;;;;;24.66;42.60;94819.84;5000820;28;20042;-84
2021/06/13 08:43:15;;;;;;;10.85;6.18;;;;;;;24.61;43.48;94828.78;4982415;28;20042;-83
2021/06/13 08:45:41;;;;;;;8.43;6.20;;;;;;;24.44;43.93;94826.97;4967734;28;20124;-84
2021/06/13 08:48:12;;;;;;;7.63;6.15;;;;;;;24.29;43.84;94822.19;4950033;28;20038;-83
2021/06/13 08:50:37;;;;;;;7.05;5.95;;;;;;;24.07;44.79;94831.09;4998449;28;20046;-84
2021/06/13 08:53:04;;;;;;;8.98;5.97;;;;;;;23.92;44.50;94831.63;4981385;28;20050;-84
2021/06/13 08:55:30;;;;;;;6.00;5.50;;;;;;;23.76;45.45;94835.88;4999532;28;20035;-84
2021/06/13 08:57:56;;;;;;;6.30;5.65;;;;;;;23.45;45.30;94828.81;4997629;28;20085;-84
2021/06/13 09:00:25;;;;;;;7.20;5.93;;;;;;;23.05;45.61;94830.78;4996720;28;20069;-84
2021/06/13 09:02:50;;;;;;;6.95;5.93;;;;;;;22.73;46.59;94839.88;5015765;28;20035;-83
2021/06/13 09:05:18;;;;;;;13.57;6.35;;;;;;;22.37;47.42;94829.47;5034219;23;20034;-83
2021/06/13 09:07:49;;;;;;;6.85;6.28;;;;;;;22.12;48.09;94838.84;5039833;23;20190;-82
2021/06/13 09:10:18;;;;;;;6.47;5.88;;;;;;;21.93;49.05;94846.19;5006656;28;20556;-82
2021/06/13 09:12:43;;;;;;;7.70;6.30;;;;;;;21.77;49.82;94845.75;5020184;28;20191;-83
2021/06/13 09:15:09;;;;;;;12.73;6.65;;;;;;;21.74;51.89;94854.31;4985645;28;20030;-82
2021/06/13 09:17:38;;;;;;;6.03;5.57;;;;;;;21.67;51.89;94853.97;5017012;28;20038;-83
2021/06/13 09:20:24;;;;;;;12.02;5.85;;;;;;;21.60;53.60;94874.75;5001656;28;20025;-82
2021/06/13 09:23:06;;;;;;;5.93;5.32;;;;;;;21.55;53.63;94871.13;4988058;28;20050;-83
2021/06/13 09:25:32;;;;;;;11.65;5.45;;;;;;;21.47;53.98;94866.53;5003962;28;20042;-82
2021/06/13 09:28:08;;;;;;;8.00;4.93;;;;;;;21.45;55.58;94887.22;5024446;28;20061;-82
2021/06/13 09:30:35;;;;;;;9.70;5.95;;;;;;;21.46;56.08;94880.06;5010724;28;20038;-82
2021/06/13 09:33:09;;;;;;;12.65;6.88;;;;;;;21.52;57.72;94884.97;5015477;28;20045;-83
2021/06/13 09:35:35;;;;;;;12.27;5.22;;;;;;;21.42;58.29;94889.69;5006931;28;20072;-83
2021/06/13 09:38:04;;;;;;;12.82;9.95;;;;;;;21.39;58.13;94880.50;5007775;28;20042;-83
2021/06/13 09:40:29;;;;;;;9.45;5.90;;;;;;;21.17;58.02;94880.41;5024590;28;20195;-83
2021/06/13 09:42:55;;;;;;;5.47;4.95;;;;;;;21.00;59.00;94888.97;5007889;28;20521;-82
2021/06/13 09:45:22;;;;;;;5.03;4.53;;;;;;;20.82;59.54;94879.25;5006992;28;20077;-83
2021/06/13 09:47:59;;;;;;;4.10;3.70;;;;;;;20.73;59.76;94878.38;5015174;28;20043;-83
2021/06/13 09:50:40;;;;;;;5.35;3.88;;;;;;;20.74;59.93;94878.09;5021061;28;20034;-83
2021/06/13 09:53:44;;;;;;;4.25;3.95;;;;;;;20.80;59.90;94878.75;5020250;28;20068;-84
2021/06/13 09:56:14;;;;;;;4.50;4.10;;;;;;;20.79;59.66;94880.63;4977515;28;20042;-83
2021/06/13 09:58:48;;;;;;;23.10;20.20;;;;;;;20.71;59.41;94881.31;4999244;28;20430;-83
2021/06/13 10:01:14;;;;;;;42.90;35.47;;;;;;;20.66;60.27;94878.75;5005677;28;20088;-83
2021/06/13 10:03:39;;;;;;;11.45;10.23;;;;;;;20.64;60.78;94896.75;5014951;28;20045;-83
2021/06/13 10:06:07;;;;;;;12.10;9.52;;;;;;;20.59;61.17;94896.88;4996188;28;20068;-85
2021/06/13 10:08:33;;;;;;;13.32;12.02;;;;;;;20.52;61.52;94899.13;5011479;28;20077;-83
2021/06/13 10:11:02;;;;;;;6.22;5.05;;;;;;;20.47;61.22;94891.25;5013079;28;20077;-82
2021/06/13 10:13:49;;;;;;;5.85;5.35;;;;;;;20.41;61.21;94887.13;5015653;28;20030;-83
2021/06/13 10:16:25;;;;;;;5.18;4.57;;;;;;;20.33;61.28;94892.00;5015690;28;20120;-83
2021/06/13 10:18:58;;;;;;;5.45;4.93;;;;;;;20.27;61.80;94893.16;5027161;23;20122;-83
2021/06/13 10:21:25;;;;;;;9.45;5.25;;;;;;;20.24;61.78;94899.03;4976618;28;20133;-83
2021/06/13 10:23:52;;;;;;;6.55;5.25;;;;;;;20.23;62.22;94892.19;4951803;28;20077;-84
2021/06/13 10:26:17;;;;;;;10.43;4.40;;;;;;;19.97;62.28;94883.88;5012934;23;20039;-83
2021/06/13 10:28:43;;;;;;;4.55;4.07;;;;;;;20.00;62.39;94890.44;5014934;28;20434;-83
2021/06/13 10:31:08;;;;;;;4.80;4.40;;;;;;;19.92;62.18;94901.66;4967709;23;20043;-84
2021/06/13 10:33:33;;;;;;;6.93;4.70;;;;;;;19.89;62.60;94896.97;4957384;28;20043;-83
2021/06/13 10:36:02;;;;;;;5.90;5.07;;;;;;;19.86;62.61;94892.28;4944037;29;20020;-82
2021/06/13 10:38:28;;;;;;;8.88;5.57;;;;;;;19.86;62.54;94884.34;4985072;28;20031;-82
2021/06/13 10:40:55;;;;;;;9.63;6.85;;;;;;;19.79;61.18;94889.97;4967260;28;20039;-82
2021/06/13 10:43:22;;;;;;;12.73;9.38;;;;;;;19.71;62.13;94891.44;4961568;28;20142;-83
2021/06/13 10:45:47;;;;;;;12.43;10.93;;;;;;;19.67;62.42;94894.91;4955553;28;20024;-83
2021/06/13 10:48:12;;;;;;;8.60;7.07;;;;;;;19.60;62.21;94887.38;4957809;28;20525;-83
2021/06/13 10:50:39;;;;;;;5.05;4.57;;;;;;;19.57;62.71;94885.31;4963755;28;20031;-83
2021/06/13 10:53:06;;;;;;;6.78;5.20;;;;;;;19.47;63.14;94886.19;4973167;28;20039;-82
2021/06/13 10:55:53;;;;;;;4.72;4.32;;;;;;;19.51;63.16;94881.13;4960874;28;20047;-82
2021/06/13 10:58:43;;;;;;;10.93;4.70;;;;;;;19.62;62.95;94893.13;5006614;23;20042;-82
2021/06/13 11:01:27;;;;;;;9.15;5.82;;;;;;;19.73;62.56;94894.56;5010385;23;20089;-82
2021/06/13 11:06:37;;;;;;;9.48;7.80;;;;;;;19.94;62.05;94894.25;5073387;23;20046;-82
2021/06/13 11:09:11;;;;;;;10.25;6.45;;;;;;;20.01;62.02;94894.66;4992305;28;20169;-83
2021/06/13 11:11:38;;;;;;;8.40;5.95;;;;;;;20.05;61.95;94896.44;4975156;28;20052;-83
2021/06/13 11:14:25;;;;;;;6.82;5.75;;;;;;;20.22;61.47;94895.13;4964938;28;20035;-83
2021/06/13 11:16:52;;;;;;;5.35;4.75;;;;;;;20.32;61.61;94901.00;4986418;28;20030;-82
2021/06/13 11:19:30;;;;;;;8.00;5.45;;;;;;;20.49;61.10;94899.69;4997313;28;20035;-82
2021/06/13 11:22:18;;;;;;;5.65;3.97;;;;;;;20.65;59.52;94899.09;4997276;28;20045;-83
2021/06/13 11:24:51;;;;;;;4.43;3.70;;;;;;;20.67;57.73;94880.34;4985661;28;20042;-82
2021/06/13 11:27:16;;;;;;;5.85;3.60;;;;;;;20.62;57.32;94883.06;5006507;28;20046;-83
2021/06/13 11:29:58;;;;;;;3.50;3.20;;;;;;;20.55;58.76;94882.69;5005920;28;20042;-83
2021/06/13 11:32:57;;;;;;;3.15;2.85;;;;;;;20.56;58.62;94886.88;4997513;28;20035;-82
2021/06/13 11:35:28;;;;;;;3.03;2.83;;;;;;;20.58;57.24;94874.16;4966014;28;20043;-83
2021/06/13 11:38:12;;;;;;;3.35;2.85;;;;;;;20.60;56.76;94864.09;4998055;28;20027;-82
2021/06/13 11:40:45;;;;;;;5.93;2.80;;;;;;;20.56;56.75;94881.59;4985284;28;20045;-85